createdAt,value
2019-05-22T00:00:41.187Z,15.40
2019-05-22T00:03:26.294Z,15.40
2019-05-22T00:05:56.433Z,14.93
2019-05-22T00:08:25.306Z,15.30
2019-05-22T00:10:55.847Z,16.40
2019-05-22T00:13:25.949Z,16.87
2019-05-22T00:15:56.474Z,15.63
2019-05-22T00:18:26.904Z,15.43
2019-05-22T00:20:55.818Z,15.63
2019-05-22T00:23:25.934Z,15.80
2019-05-22T00:25:54.392Z,16.00
2019-05-22T00:28:24.413Z,16.23
2019-05-22T00:30:52.982Z,16.30
2019-05-22T00:33:22.167Z,16.10
2019-05-22T00:35:52.713Z,16.57
2019-05-22T00:38:22.660Z,16.20
2019-05-22T00:40:57.276Z,16.87
2019-05-22T00:43:30.497Z,16.87
2019-05-22T00:45:59.875Z,17.47
2019-05-22T00:48:29.859Z,17.07
2019-05-22T00:51:15.060Z,22.07
2019-05-22T00:54:00.505Z,18.20
2019-05-22T00:56:37.010Z,18.00
2019-05-22T00:59:19.567Z,17.50
2019-05-22T01:02:05.325Z,18.80
2019-05-22T01:04:38.848Z,19.40
2019-05-22T01:07:12.804Z,19.90
2019-05-22T01:09:45.715Z,18.87
2019-05-22T01:12:30.813Z,19.00
2019-05-22T01:15:03.721Z,19.50
2019-05-22T01:17:35.801Z,18.87
2019-05-22T01:20:06.951Z,20.53
2019-05-22T01:22:37.195Z,19.70
2019-05-22T01:25:06.813Z,21.20
2019-05-22T01:27:36.713Z,23.57
2019-05-22T01:30:08.423Z,19.43
2019-05-22T01:32:47.838Z,19.87
2019-05-22T01:35:16.629Z,20.50
2019-05-22T01:37:45.007Z,20.20
2019-05-22T01:40:20.859Z,20.80
2019-05-22T01:42:51.894Z,21.57
2019-05-22T01:45:21.948Z,21.03
2019-05-22T01:47:57.328Z,22.03
2019-05-22T01:50:41.399Z,22.00
2019-05-22T01:53:11.550Z,22.60
2019-05-22T01:55:41.636Z,21.17
2019-05-22T01:58:12.535Z,23.47
2019-05-22T02:00:42.149Z,23.10
2019-05-22T02:03:11.572Z,21.23
2019-05-22T02:05:41.134Z,21.10
2019-05-22T02:08:10.635Z,21.47
2019-05-22T02:10:42.564Z,21.00
2019-05-22T02:13:11.564Z,21.00
2019-05-22T02:15:41.542Z,21.00
2019-05-22T02:18:17.782Z,20.07
2019-05-22T02:20:46.796Z,21.37
2019-05-22T02:23:17.008Z,20.27
2019-05-22T02:25:45.649Z,21.53
2019-05-22T02:28:14.836Z,20.37
2019-05-22T02:30:44.018Z,20.37
2019-05-22T02:33:14.169Z,19.83
2019-05-22T02:35:42.962Z,20.20
2019-05-22T02:38:12.308Z,19.73
2019-05-22T02:40:42.137Z,21.73
2019-05-22T02:43:11.222Z,20.10
2019-05-22T02:45:39.784Z,20.23
2019-05-22T02:48:10.488Z,21.33
2019-05-22T02:50:39.326Z,21.63
2019-05-22T02:53:10.452Z,20.13
2019-05-22T02:55:40.584Z,20.30
2019-05-22T02:58:10.617Z,21.03
2019-05-22T03:01:00.430Z,20.80
2019-05-22T03:03:29.128Z,19.97
2019-05-22T03:05:57.701Z,20.00
2019-05-22T03:08:29.242Z,21.83
2019-05-22T03:10:57.700Z,20.97
2019-05-22T03:13:57.660Z,20.00
2019-05-22T03:16:28.163Z,20.70
2019-05-22T03:19:08.269Z,21.40
2019-05-22T03:21:28.585Z,20.50
2019-05-22T03:23:57.098Z,21.27
2019-05-22T03:26:40.596Z,20.43
2019-05-22T03:29:09.614Z,20.50
2019-05-22T03:31:38.483Z,21.93
2019-05-22T03:34:06.978Z,22.40
2019-05-22T03:36:35.727Z,21.30
2019-05-22T03:39:05.968Z,21.87
2019-05-22T03:41:35.798Z,22.30
2019-05-22T03:44:04.877Z,21.40
2019-05-22T03:46:36.997Z,21.67
2019-05-22T03:49:05.481Z,21.57
2019-05-22T03:51:34.999Z,21.80
2019-05-22T03:54:03.611Z,21.73
2019-05-22T03:56:32.645Z,22.27
2019-05-22T03:59:02.569Z,22.20
2019-05-22T04:01:32.670Z,22.40
2019-05-22T04:04:02.585Z,23.30
2019-05-22T04:06:32.753Z,20.83
2019-05-22T04:09:05.899Z,22.80
2019-05-22T04:11:38.649Z,22.57
2019-05-22T04:14:07.266Z,20.20
2019-05-22T04:16:35.914Z,20.63
2019-05-22T04:19:05.110Z,21.63
2019-05-22T04:21:33.402Z,21.33
2019-05-22T04:24:02.777Z,21.57
2019-05-22T04:26:32.861Z,22.10
2019-05-22T04:29:01.790Z,22.87
2019-05-22T04:31:49.805Z,21.73
2019-05-22T04:34:20.757Z,21.50
2019-05-22T04:36:50.170Z,22.47
2019-05-22T04:39:24.260Z,23.17
2019-05-22T04:41:53.919Z,22.63
2019-05-22T04:44:22.569Z,21.90
2019-05-22T04:46:51.065Z,22.53
2019-05-22T04:49:19.519Z,22.30
2019-05-22T04:51:48.035Z,21.67
2019-05-22T04:54:18.025Z,21.33
2019-05-22T04:56:47.361Z,20.50
2019-05-22T04:59:16.357Z,22.20
2019-05-22T05:01:45.833Z,20.20
2019-05-22T05:04:15.076Z,21.97
2019-05-22T05:06:45.550Z,21.83
2019-05-22T05:09:15.755Z,20.10
2019-05-22T05:11:44.492Z,20.37
2019-05-22T05:14:12.909Z,20.10
2019-05-22T05:16:42.425Z,19.53
2019-05-22T05:19:10.821Z,21.20
2019-05-22T05:21:39.234Z,18.87
2019-05-22T05:24:07.632Z,20.60
2019-05-22T05:26:38.091Z,19.90
2019-05-22T05:29:07.834Z,21.17
2019-05-22T05:31:36.335Z,19.57
2019-05-22T05:34:19.859Z,21.80
2019-05-22T05:36:48.684Z,20.27
2019-05-22T05:39:40.122Z,21.17
2019-05-22T05:42:08.483Z,20.03
2019-05-22T05:44:37.669Z,20.20
2019-05-22T05:47:07.288Z,20.13
2019-05-22T05:49:35.915Z,20.80
2019-05-22T05:52:07.354Z,20.60
2019-05-22T05:54:36.936Z,21.67
2019-05-22T05:57:31.437Z,21.20
2019-05-22T05:59:59.912Z,20.90
2019-05-22T06:02:28.349Z,19.50
2019-05-22T06:04:57.000Z,21.57
2019-05-22T06:07:25.463Z,22.10
2019-05-22T06:09:57.154Z,22.00
2019-05-22T06:12:25.538Z,21.43
2019-05-22T06:14:53.864Z,23.20
2019-05-22T06:17:32.634Z,23.60
2019-05-22T06:20:09.867Z,19.77
2019-05-22T06:22:38.779Z,19.67
2019-05-22T06:25:08.675Z,20.00
2019-05-22T06:27:41.741Z,19.83
2019-05-22T06:30:14.225Z,22.33
2019-05-22T06:33:12.207Z,19.30
2019-05-22T06:35:42.374Z,20.77
2019-05-22T06:38:38.967Z,19.80
2019-05-22T06:41:07.332Z,20.43
2019-05-22T06:43:38.906Z,19.77
2019-05-22T06:46:07.488Z,19.40
2019-05-22T06:48:35.960Z,19.30
2019-05-22T06:51:18.540Z,20.97
2019-05-22T06:53:34.663Z,19.30
2019-05-22T06:56:03.054Z,21.20
2019-05-22T06:58:31.637Z,19.30
2019-05-22T07:01:00.161Z,20.63
2019-05-22T07:03:28.544Z,20.77
2019-05-22T07:05:57.233Z,20.23
2019-05-22T07:08:25.775Z,20.10
2019-05-22T07:10:54.469Z,18.60
2019-05-22T07:13:23.669Z,19.17
2019-05-22T07:15:52.333Z,18.57
2019-05-22T07:18:23.265Z,18.53
2019-05-22T07:20:53.138Z,18.40
2019-05-22T07:23:23.507Z,18.57
2019-05-22T07:25:52.898Z,17.50
2019-05-22T07:28:23.339Z,17.60
2019-05-22T07:30:52.661Z,17.77
2019-05-22T07:33:22.140Z,17.43
2019-05-22T07:36:08.617Z,18.23
2019-05-22T07:38:21.756Z,18.37
2019-05-22T07:40:51.670Z,17.27
2019-05-22T07:43:21.429Z,17.63
2019-05-22T07:45:51.847Z,16.73
2019-05-22T07:48:21.240Z,16.73
2019-05-22T07:50:50.121Z,16.80
2019-05-22T07:53:18.592Z,15.67
2019-05-22T07:55:47.790Z,14.53
2019-05-22T07:58:17.752Z,16.00
2019-05-22T08:00:55.072Z,14.90
2019-05-22T08:03:25.287Z,15.37
2019-05-22T08:05:56.232Z,13.97
2019-05-22T08:08:25.622Z,14.87
2019-05-22T08:10:55.249Z,14.10
2019-05-22T08:13:24.405Z,14.53
2019-05-22T08:15:52.693Z,14.23
2019-05-22T08:18:21.876Z,12.57
2019-05-22T08:20:50.465Z,12.40
2019-05-22T08:23:19.850Z,11.40
2019-05-22T08:25:48.443Z,14.20
2019-05-22T08:28:17.986Z,11.90
2019-05-22T08:30:46.364Z,12.30
2019-05-22T08:33:17.230Z,12.23
2019-05-22T08:35:45.867Z,12.90
2019-05-22T08:38:14.795Z,13.60
2019-05-22T08:40:43.456Z,14.57
2019-05-22T08:43:12.714Z,15.30
2019-05-22T08:45:41.040Z,15.73
2019-05-22T08:48:09.795Z,13.50
2019-05-22T08:50:41.722Z,11.90
2019-05-22T08:53:13.508Z,12.17
2019-05-22T08:55:42.312Z,12.17
2019-05-22T08:58:11.481Z,12.03
2019-05-22T09:00:39.909Z,12.60
2019-05-22T09:03:09.621Z,11.77
2019-05-22T09:05:38.193Z,12.67
2019-05-22T09:08:06.637Z,13.30
2019-05-22T09:10:35.403Z,11.60
2019-05-22T09:13:04.195Z,12.70
2019-05-22T09:15:33.558Z,11.60
2019-05-22T09:18:02.809Z,11.70
2019-05-22T09:20:47.752Z,10.30
2019-05-22T09:23:01.931Z,11.13
2019-05-22T09:25:32.050Z,10.80
2019-05-22T09:28:00.697Z,11.40
2019-05-22T09:30:29.869Z,9.67
2019-05-22T09:32:58.844Z,10.80
2019-05-22T09:35:27.332Z,9.80
2019-05-22T09:37:57.114Z,12.93
2019-05-22T09:40:25.712Z,10.20
2019-05-22T09:42:54.317Z,10.87
2019-05-22T09:45:22.764Z,10.37
2019-05-22T09:47:51.428Z,10.33
2019-05-22T09:50:21.145Z,10.40
2019-05-22T09:52:57.780Z,9.80
2019-05-22T09:55:20.182Z,10.23
2019-05-22T09:57:48.780Z,9.43
2019-05-22T10:00:18.277Z,8.77
2019-05-22T10:02:46.860Z,9.20
2019-05-22T10:05:16.382Z,8.90
2019-05-22T10:07:59.809Z,9.10
2019-05-22T10:10:17.237Z,9.20
2019-05-22T10:12:45.560Z,9.60
2019-05-22T10:15:14.588Z,8.60
2019-05-22T10:17:49.319Z,9.00
2019-05-22T10:20:18.837Z,8.20
2019-05-22T10:22:47.465Z,8.87
2019-05-22T10:25:17.265Z,8.60
2019-05-22T10:27:47.589Z,8.50
2019-05-22T10:30:21.419Z,8.90
2019-05-22T10:32:50.157Z,9.33
2019-05-22T10:35:22.236Z,12.23
2019-05-22T10:37:50.823Z,7.67
2019-05-22T10:40:20.044Z,8.57
2019-05-22T10:42:48.654Z,8.20
2019-05-22T10:45:17.207Z,8.10
2019-05-22T10:47:45.911Z,8.43
2019-05-22T10:50:14.643Z,8.13
2019-05-22T10:52:43.443Z,8.20
2019-05-22T10:55:13.029Z,8.30
2019-05-22T10:57:42.651Z,7.13
2019-05-22T11:00:12.957Z,7.73
2019-05-22T11:02:41.885Z,7.50
2019-05-22T11:05:10.537Z,7.13
2019-05-22T11:07:39.049Z,9.23
2019-05-22T11:10:08.484Z,9.53
2019-05-22T11:12:36.917Z,7.40
2019-05-22T11:15:07.558Z,7.90
2019-05-22T11:17:36.001Z,7.20
2019-05-22T11:20:08.829Z,6.87
2019-05-22T11:22:37.986Z,6.43
2019-05-22T11:25:09.603Z,7.93
2019-05-22T11:27:38.962Z,8.13
2019-05-22T11:30:08.934Z,7.40
2019-05-22T11:32:37.461Z,9.47
2019-05-22T11:35:08.431Z,8.27
2019-05-22T11:37:37.571Z,7.50
2019-05-22T11:40:07.815Z,7.73
2019-05-22T11:42:38.086Z,6.83
2019-05-22T11:45:12.100Z,7.50
2019-05-22T11:47:41.956Z,7.97
2019-05-22T11:50:12.187Z,7.63
2019-05-22T11:52:41.805Z,7.80
2019-05-22T11:55:11.001Z,7.30
2019-05-22T11:57:40.155Z,7.47
2019-05-22T12:00:10.036Z,6.90
2019-05-22T12:02:39.976Z,6.70
2019-05-22T12:05:10.550Z,6.93
2019-05-22T12:07:43.515Z,6.13
2019-05-22T12:10:13.036Z,5.83
2019-05-22T12:12:41.690Z,5.77
2019-05-22T12:15:11.861Z,8.30
2019-05-22T12:17:40.355Z,8.37
2019-05-22T12:20:11.456Z,8.37
2019-05-22T12:22:40.433Z,8.83
2019-05-22T12:25:10.877Z,9.90
2019-05-22T12:27:39.217Z,7.80
2019-05-22T12:30:08.142Z,9.83
2019-05-22T12:32:38.066Z,6.90
2019-05-22T12:35:07.289Z,6.77
2019-05-22T12:37:36.186Z,6.30
2019-05-22T12:40:07.865Z,7.20
2019-05-22T12:42:36.351Z,7.80
2019-05-22T12:45:10.005Z,8.03
2019-05-22T12:47:38.630Z,9.20
2019-05-22T12:50:10.352Z,7.40
2019-05-22T12:52:38.867Z,7.57
2019-05-22T12:55:07.448Z,7.83
2019-05-22T12:57:35.784Z,7.17
2019-05-22T13:00:07.492Z,7.30
2019-05-22T13:02:36.873Z,7.60
2019-05-22T13:05:07.887Z,7.20
2019-05-22T13:07:36.362Z,6.97
2019-05-22T13:10:06.962Z,7.47
2019-05-22T13:12:35.650Z,7.87
2019-05-22T13:15:10.307Z,8.90
2019-05-22T13:17:37.078Z,8.27
2019-05-22T13:20:08.148Z,8.30
2019-05-22T13:22:38.087Z,8.50
2019-05-22T13:25:10.249Z,7.17
2019-05-22T13:27:39.669Z,8.00
2019-05-22T13:30:11.607Z,8.20
2019-05-22T13:32:41.781Z,10.23
2019-05-22T13:35:10.284Z,9.10
2019-05-22T13:37:40.040Z,7.70
2019-05-22T13:40:26.087Z,8.03
2019-05-22T13:42:39.732Z,7.97
2019-05-22T13:45:26.018Z,7.50
2019-05-22T13:47:39.009Z,7.87
2019-05-22T13:50:08.294Z,8.60
2019-05-22T13:52:37.951Z,8.23
2019-05-22T13:55:07.788Z,7.80
2019-05-22T13:57:36.681Z,7.60
2019-05-22T14:00:10.084Z,6.60
2019-05-22T14:02:38.982Z,6.70
2019-05-22T14:05:08.168Z,6.47
2019-05-22T14:07:36.594Z,6.33
2019-05-22T14:10:08.975Z,6.30
2019-05-22T14:12:37.258Z,6.37
2019-05-22T14:15:06.949Z,6.70
2019-05-22T14:17:35.459Z,6.00
2019-05-22T14:20:05.059Z,6.40
2019-05-22T14:22:33.405Z,5.00
2019-05-22T14:25:01.829Z,5.80
2019-05-22T14:27:30.216Z,5.60
2019-05-22T14:29:58.735Z,7.60
2019-05-22T14:32:29.853Z,6.60
2019-05-22T14:34:57.913Z,7.00
2019-05-22T14:37:26.975Z,6.77
2019-05-22T14:39:56.785Z,7.50
2019-05-22T14:42:25.296Z,6.90
2019-05-22T14:44:53.975Z,6.93
2019-05-22T14:47:22.847Z,6.87
2019-05-22T14:49:52.062Z,7.77
2019-05-22T14:52:20.928Z,6.40
2019-05-22T14:54:49.304Z,5.27
2019-05-22T14:57:17.912Z,6.00
2019-05-22T14:59:46.361Z,5.83
2019-05-22T15:02:15.513Z,5.60
2019-05-22T15:04:43.886Z,6.87
2019-05-22T15:07:12.343Z,6.50
2019-05-22T15:09:40.917Z,5.97
2019-05-22T15:12:09.418Z,7.13
2019-05-22T15:14:37.895Z,6.70
2019-05-22T15:17:07.006Z,7.70
2019-05-22T15:19:35.905Z,6.67
2019-05-22T15:22:05.345Z,6.93
2019-05-22T15:24:33.770Z,6.33
2019-05-22T15:27:03.405Z,7.03
2019-05-22T15:29:31.951Z,6.50
2019-05-22T15:32:00.448Z,5.33
2019-05-22T15:34:30.351Z,5.30
2019-05-22T15:36:59.301Z,6.37
2019-05-22T15:39:28.586Z,6.50
2019-05-22T15:41:57.620Z,5.77
2019-05-22T15:44:27.366Z,5.60
2019-05-22T15:46:55.937Z,5.20
2019-05-22T15:49:25.852Z,5.50
2019-05-22T15:51:54.258Z,5.13
2019-05-22T15:54:22.761Z,5.57
2019-05-22T15:56:51.111Z,6.20
2019-05-22T15:59:21.996Z,5.80
2019-05-22T16:01:51.252Z,5.60
2019-05-22T16:04:23.222Z,5.70
2019-05-22T16:06:52.371Z,5.30
2019-05-22T16:09:21.816Z,7.07
2019-05-22T16:11:52.417Z,5.33
2019-05-22T16:14:22.031Z,6.60
2019-05-22T16:16:51.458Z,5.90
2019-05-22T16:19:22.380Z,5.40
2019-05-22T16:21:53.378Z,4.27
2019-05-22T16:24:22.423Z,5.00
2019-05-22T16:26:52.637Z,5.13
2019-05-22T16:29:24.070Z,5.63
2019-05-22T16:31:53.899Z,5.60
2019-05-22T16:34:28.319Z,5.80
2019-05-22T16:36:55.674Z,5.80
2019-05-22T16:39:24.900Z,6.13
2019-05-22T16:41:53.987Z,6.30
2019-05-22T16:44:22.498Z,6.73
2019-05-22T16:46:51.739Z,6.30
2019-05-22T16:49:20.806Z,6.17
2019-05-22T16:51:49.850Z,6.10
2019-05-22T16:54:21.198Z,6.30
